sensor_id;sensor_type;location;lat;lon;timestamp;temperature;humidity
14585;DHT22;7379;51.506;11.876;2023-02-13T00:01:10;7.90;84.80
14585;DHT22;7379;51.506;11.876;2023-02-13T00:03:38;7.90;84.80
14585;DHT22;7379;51.506;11.876;2023-02-13T00:06:05;7.90;84.80
14585;DHT22;7379;51.506;11.876;2023-02-13T00:08:32;7.90;84.80
14585;DHT22;7379;51.506;11.876;2023-02-13T00:10:59;7.90;85.60
14585;DHT22;7379;51.506;11.876;2023-02-13T00:13:26;7.90;84.80
14585;DHT22;7379;51.506;11.876;2023-02-13T00:15:56;7.90;84.90
14585;DHT22;7379;51.506;11.876;2023-02-13T00:18:24;7.90;84.90
14585;DHT22;7379;51.506;11.876;2023-02-13T00:20:59;7.90;84.90
14585;DHT22;7379;51.506;11.876;2023-02-13T00:23:28;7.90;84.90
14585;DHT22;7379;51.506;11.876;2023-02-13T00:25:55;7.90;84.90
14585;DHT22;7379;51.506;11.876;2023-02-13T00:28:22;7.90;84.90
14585;DHT22;7379;51.506;11.876;2023-02-13T00:30:49;7.90;84.90
14585;DHT22;7379;51.506;11.876;2023-02-13T00:33:15;7.90;84.90
14585;DHT22;7379;51.506;11.876;2023-02-13T00:35:42;7.90;84.90
14585;DHT22;7379;51.506;11.876;2023-02-13T00:38:10;7.90;84.90
14585;DHT22;7379;51.506;11.876;2023-02-13T00:40:37;7.90;84.90
14585;DHT22;7379;51.506;11.876;2023-02-13T00:43:04;7.90;84.80
14585;DHT22;7379;51.506;11.876;2023-02-13T00:45:30;7.90;84.80
14585;DHT22;7379;51.506;11.876;2023-02-13T00:47:57;7.90;84.80
14585;DHT22;7379;51.506;11.876;2023-02-13T00:50:24;7.90;84.80
14585;DHT22;7379;51.506;11.876;2023-02-13T00:52:51;7.90;84.70
14585;DHT22;7379;51.506;11.876;2023-02-13T00:55:19;7.90;84.70
14585;DHT22;7379;51.506;11.876;2023-02-13T00:57:46;7.90;84.70
14585;DHT22;7379;51.506;11.876;2023-02-13T01:00:14;7.90;84.70
14585;DHT22;7379;51.506;11.876;2023-02-13T01:02:40;7.90;84.70
14585;DHT22;7379;51.506;11.876;2023-02-13T01:05:07;7.90;84.70
14585;DHT22;7379;51.506;11.876;2023-02-13T01:07:34;7.90;84.70
14585;DHT22;7379;51.506;11.876;2023-02-13T01:10:01;7.90;84.70
14585;DHT22;7379;51.506;11.876;2023-02-13T01:12:30;7.90;84.70
14585;DHT22;7379;51.506;11.876;2023-02-13T01:14:57;7.90;84.70
14585;DHT22;7379;51.506;11.876;2023-02-13T01:17:23;7.80;84.60
14585;DHT22;7379;51.506;11.876;2023-02-13T01:19:50;7.90;84.70
14585;DHT22;7379;51.506;11.876;2023-02-13T01:22:17;7.80;84.60
14585;DHT22;7379;51.506;11.876;2023-02-13T01:24:44;7.80;84.60
14585;DHT22;7379;51.506;11.876;2023-02-13T01:27:11;7.80;84.60
14585;DHT22;7379;51.506;11.876;2023-02-13T01:29:39;7.90;84.70
14585;DHT22;7379;51.506;11.876;2023-02-13T01:32:05;7.80;84.60
14585;DHT22;7379;51.506;11.876;2023-02-13T01:34:33;7.80;84.50
14585;DHT22;7379;51.506;11.876;2023-02-13T01:36:59;7.80;84.50
14585;DHT22;7379;51.506;11.876;2023-02-13T01:39:26;7.90;84.60
14585;DHT22;7379;51.506;11.876;2023-02-13T01:41:53;7.80;84.50
14585;DHT22;7379;51.506;11.876;2023-02-13T01:44:47;7.80;84.50
14585;DHT22;7379;51.506;11.876;2023-02-13T01:47:19;7.80;84.50
14585;DHT22;7379;51.506;11.876;2023-02-13T01:49:47;7.80;85.20
14585;DHT22;7379;51.506;11.876;2023-02-13T01:52:15;7.80;84.50
14585;DHT22;7379;51.506;11.876;2023-02-13T01:54:43;7.90;84.60
14585;DHT22;7379;51.506;11.876;2023-02-13T01:57:15;7.80;84.50
14585;DHT22;7379;51.506;11.876;2023-02-13T01:59:48;7.80;84.50
14585;DHT22;7379;51.506;11.876;2023-02-13T02:02:17;7.80;84.50
14585;DHT22;7379;51.506;11.876;2023-02-13T02:04:46;7.80;84.50
14585;DHT22;7379;51.506;11.876;2023-02-13T02:07:18;7.80;84.50
14585;DHT22;7379;51.506;11.876;2023-02-13T02:09:46;7.80;84.50
14585;DHT22;7379;51.506;11.876;2023-02-13T02:12:19;7.80;84.40
14585;DHT22;7379;51.506;11.876;2023-02-13T02:14:50;7.80;84.40
14585;DHT22;7379;51.506;11.876;2023-02-13T02:17:19;7.80;84.50
14585;DHT22;7379;51.506;11.876;2023-02-13T02:19:51;7.80;84.50
14585;DHT22;7379;51.506;11.876;2023-02-13T02:31:48;7.80;84.40
14585;DHT22;7379;51.506;11.876;2023-02-13T02:34:24;7.80;84.40
14585;DHT22;7379;51.506;11.876;2023-02-13T02:37:06;7.80;84.50
14585;DHT22;7379;51.506;11.876;2023-02-13T02:39:45;7.80;84.50
14585;DHT22;7379;51.506;11.876;2023-02-13T02:42:20;7.80;84.40
14585;DHT22;7379;51.506;11.876;2023-02-13T02:44:54;7.80;84.50
14585;DHT22;7379;51.506;11.876;2023-02-13T02:47:25;7.80;84.50
14585;DHT22;7379;51.506;11.876;2023-02-13T02:50:28;7.80;84.50
14585;DHT22;7379;51.506;11.876;2023-02-13T02:53:05;7.80;84.50
14585;DHT22;7379;51.506;11.876;2023-02-13T02:55:37;7.80;84.50
14585;DHT22;7379;51.506;11.876;2023-02-13T02:58:11;7.80;84.50
14585;DHT22;7379;51.506;11.876;2023-02-13T03:00:58;7.80;84.50
14585;DHT22;7379;51.506;11.876;2023-02-13T03:03:45;7.80;84.50
14585;DHT22;7379;51.506;11.876;2023-02-13T03:06:34;7.80;84.40
14585;DHT22;7379;51.506;11.876;2023-02-13T03:09:05;7.80;84.40
14585;DHT22;7379;51.506;11.876;2023-02-13T03:12:07;7.80;84.50
14585;DHT22;7379;51.506;11.876;2023-02-13T03:14:52;7.80;84.40
14585;DHT22;7379;51.506;11.876;2023-02-13T03:17:19;7.70;84.30
14585;DHT22;7379;51.506;11.876;2023-02-13T03:20:14;7.80;84.40
14585;DHT22;7379;51.506;11.876;2023-02-13T03:23:11;7.80;84.40
14585;DHT22;7379;51.506;11.876;2023-02-13T03:25:53;7.80;84.40
14585;DHT22;7379;51.506;11.876;2023-02-13T03:28:28;7.80;84.40
14585;DHT22;7379;51.506;11.876;2023-02-13T03:31:25;7.70;84.30
14585;DHT22;7379;51.506;11.876;2023-02-13T03:33:58;7.80;84.40
14585;DHT22;7379;51.506;11.876;2023-02-13T03:36:36;7.70;84.30
14585;DHT22;7379;51.506;11.876;2023-02-13T03:39:33;7.80;84.40
14585;DHT22;7379;51.506;11.876;2023-02-13T03:42:04;7.80;84.40
14585;DHT22;7379;51.506;11.876;2023-02-13T03:44:36;7.70;84.30
14585;DHT22;7379;51.506;11.876;2023-02-13T03:47:06;7.70;84.30
14585;DHT22;7379;51.506;11.876;2023-02-13T03:49:37;7.70;84.30
14585;DHT22;7379;51.506;11.876;2023-02-13T03:52:30;7.70;84.30
14585;DHT22;7379;51.506;11.876;2023-02-13T03:55:00;7.70;84.30
14585;DHT22;7379;51.506;11.876;2023-02-13T03:57:47;7.70;84.30
14585;DHT22;7379;51.506;11.876;2023-02-13T04:00:36;7.70;84.30
14585;DHT22;7379;51.506;11.876;2023-02-13T04:03:10;7.70;84.30
14585;DHT22;7379;51.506;11.876;2023-02-13T04:05:41;7.70;84.30
14585;DHT22;7379;51.506;11.876;2023-02-13T04:08:10;7.70;84.30
14585;DHT22;7379;51.506;11.876;2023-02-13T04:10:43;7.70;84.30
14585;DHT22;7379;51.506;11.876;2023-02-13T04:13:16;7.70;84.30
14585;DHT22;7379;51.506;11.876;2023-02-13T04:15:48;7.70;84.30
14585;DHT22;7379;51.506;11.876;2023-02-13T04:18:17;7.70;84.30
14585;DHT22;7379;51.506;11.876;2023-02-13T04:20:45;7.70;84.30
14585;DHT22;7379;51.506;11.876;2023-02-13T04:23:14;7.70;84.30
14585;DHT22;7379;51.506;11.876;2023-02-13T04:25:44;7.70;84.30
14585;DHT22;7379;51.506;11.876;2023-02-13T04:28:12;7.70;84.30
14585;DHT22;7379;51.506;11.876;2023-02-13T04:30:39;7.70;84.30
14585;DHT22;7379;51.506;11.876;2023-02-13T04:33:06;7.70;84.20
14585;DHT22;7379;51.506;11.876;2023-02-13T04:35:33;7.70;84.30
14585;DHT22;7379;51.506;11.876;2023-02-13T04:38:00;7.70;84.30
14585;DHT22;7379;51.506;11.876;2023-02-13T04:40:28;7.70;84.30
14585;DHT22;7379;51.506;11.876;2023-02-13T04:42:55;7.70;84.20
14585;DHT22;7379;51.506;11.876;2023-02-13T04:45:22;7.70;84.20
14585;DHT22;7379;51.506;11.876;2023-02-13T04:47:50;7.70;84.20
14585;DHT22;7379;51.506;11.876;2023-02-13T04:50:17;7.70;84.20
14585;DHT22;7379;51.506;11.876;2023-02-13T04:52:44;7.70;84.20
14585;DHT22;7379;51.506;11.876;2023-02-13T04:55:11;7.70;84.20
14585;DHT22;7379;51.506;11.876;2023-02-13T04:57:40;7.70;84.20
14585;DHT22;7379;51.506;11.876;2023-02-13T05:00:07;7.70;84.20
14585;DHT22;7379;51.506;11.876;2023-02-13T05:02:34;7.70;84.20
14585;DHT22;7379;51.506;11.876;2023-02-13T05:05:01;7.70;84.20
14585;DHT22;7379;51.506;11.876;2023-02-13T05:07:28;7.70;84.20
14585;DHT22;7379;51.506;11.876;2023-02-13T05:09:55;7.70;84.20
14585;DHT22;7379;51.506;11.876;2023-02-13T05:12:21;7.70;84.20
14585;DHT22;7379;51.506;11.876;2023-02-13T05:14:50;7.70;84.20
14585;DHT22;7379;51.506;11.876;2023-02-13T05:17:16;7.70;84.30
14585;DHT22;7379;51.506;11.876;2023-02-13T05:19:43;7.70;84.20
14585;DHT22;7379;51.506;11.876;2023-02-13T05:22:10;7.70;84.30
14585;DHT22;7379;51.506;11.876;2023-02-13T05:24:54;7.60;84.20
14585;DHT22;7379;51.506;11.876;2023-02-13T05:27:21;7.60;84.20
14585;DHT22;7379;51.506;11.876;2023-02-13T05:29:49;7.60;84.20
14585;DHT22;7379;51.506;11.876;2023-02-13T05:32:16;7.60;84.20
14585;DHT22;7379;51.506;11.876;2023-02-13T05:34:43;7.70;84.20
14585;DHT22;7379;51.506;11.876;2023-02-13T05:37:10;7.60;84.20
14585;DHT22;7379;51.506;11.876;2023-02-13T05:39:36;7.60;84.90
14585;DHT22;7379;51.506;11.876;2023-02-13T05:42:03;7.60;84.90
14585;DHT22;7379;51.506;11.876;2023-02-13T05:44:30;7.60;84.20
14585;DHT22;7379;51.506;11.876;2023-02-13T05:46:59;7.60;84.20
14585;DHT22;7379;51.506;11.876;2023-02-13T05:49:25;7.60;84.20
14585;DHT22;7379;51.506;11.876;2023-02-13T05:51:52;7.60;84.20
14585;DHT22;7379;51.506;11.876;2023-02-13T05:54:19;7.60;84.20
14585;DHT22;7379;51.506;11.876;2023-02-13T05:56:46;7.60;84.20
14585;DHT22;7379;51.506;11.876;2023-02-13T05:59:13;7.60;84.20
14585;DHT22;7379;51.506;11.876;2023-02-13T06:01:40;7.60;84.20
14585;DHT22;7379;51.506;11.876;2023-02-13T06:04:08;7.60;84.20
14585;DHT22;7379;51.506;11.876;2023-02-13T06:06:35;7.60;84.20
14585;DHT22;7379;51.506;11.876;2023-02-13T06:09:02;7.60;84.20
14585;DHT22;7379;51.506;11.876;2023-02-13T06:11:29;7.60;84.20
14585;DHT22;7379;51.506;11.876;2023-02-13T06:13:56;7.60;84.20
14585;DHT22;7379;51.506;11.876;2023-02-13T06:16:22;7.60;84.20
14585;DHT22;7379;51.506;11.876;2023-02-13T06:18:49;7.60;84.20
14585;DHT22;7379;51.506;11.876;2023-02-13T06:21:17;7.60;84.20
14585;DHT22;7379;51.506;11.876;2023-02-13T06:23:44;7.60;84.20
14585;DHT22;7379;51.506;11.876;2023-02-13T06:26:11;7.60;84.20
14585;DHT22;7379;51.506;11.876;2023-02-13T06:28:38;7.60;84.20
14585;DHT22;7379;51.506;11.876;2023-02-13T06:31:04;7.60;84.20
14585;DHT22;7379;51.506;11.876;2023-02-13T06:33:31;7.60;84.20
14585;DHT22;7379;51.506;11.876;2023-02-13T06:35:58;7.60;84.20
14585;DHT22;7379;51.506;11.876;2023-02-13T06:38:26;7.60;84.20
14585;DHT22;7379;51.506;11.876;2023-02-13T06:40:58;7.60;84.20
14585;DHT22;7379;51.506;11.876;2023-02-13T06:43:26;7.60;84.20
14585;DHT22;7379;51.506;11.876;2023-02-13T06:45:52;7.60;84.20
14585;DHT22;7379;51.506;11.876;2023-02-13T06:48:19;7.60;84.20
14585;DHT22;7379;51.506;11.876;2023-02-13T06:50:46;7.60;84.20
14585;DHT22;7379;51.506;11.876;2023-02-13T06:53:13;7.60;84.20
14585;DHT22;7379;51.506;11.876;2023-02-13T06:55:41;7.60;84.20
14585;DHT22;7379;51.506;11.876;2023-02-13T06:58:08;7.60;84.20
14585;DHT22;7379;51.506;11.876;2023-02-13T07:00:35;7.60;84.20
14585;DHT22;7379;51.506;11.876;2023-02-13T07:03:03;7.60;84.20
14585;DHT22;7379;51.506;11.876;2023-02-13T07:05:30;7.60;84.20
14585;DHT22;7379;51.506;11.876;2023-02-13T07:07:57;7.60;84.20
14585;DHT22;7379;51.506;11.876;2023-02-13T07:10:24;7.60;84.20
14585;DHT22;7379;51.506;11.876;2023-02-13T07:12:52;7.60;84.20
14585;DHT22;7379;51.506;11.876;2023-02-13T07:15:19;7.50;84.20
14585;DHT22;7379;51.506;11.876;2023-02-13T07:17:45;7.50;84.40
14585;DHT22;7379;51.506;11.876;2023-02-13T07:20:12;7.50;84.60
14585;DHT22;7379;51.506;11.876;2023-02-13T07:22:39;7.60;84.80
14585;DHT22;7379;51.506;11.876;2023-02-13T07:25:06;7.50;84.80
14585;DHT22;7379;51.506;11.876;2023-02-13T07:27:33;7.60;84.80
14585;DHT22;7379;51.506;11.876;2023-02-13T07:30:01;7.50;84.60
14585;DHT22;7379;51.506;11.876;2023-02-13T07:32:28;7.60;84.70
14585;DHT22;7379;51.506;11.876;2023-02-13T07:34:55;7.50;84.50
14585;DHT22;7379;51.506;11.876;2023-02-13T07:37:22;7.50;84.50
14585;DHT22;7379;51.506;11.876;2023-02-13T07:39:49;7.50;84.50
14585;DHT22;7379;51.506;11.876;2023-02-13T07:42:15;7.50;84.40
14585;DHT22;7379;51.506;11.876;2023-02-13T07:44:42;7.60;84.60
14585;DHT22;7379;51.506;11.876;2023-02-13T07:47:10;7.50;84.40
14585;DHT22;7379;51.506;11.876;2023-02-13T07:49:37;7.60;84.50
14585;DHT22;7379;51.506;11.876;2023-02-13T07:52:05;7.60;85.20
14585;DHT22;7379;51.506;11.876;2023-02-13T07:54:31;7.50;84.40
14585;DHT22;7379;51.506;11.876;2023-02-13T07:56:58;7.50;84.40
14585;DHT22;7379;51.506;11.876;2023-02-13T07:59:25;7.50;84.30
14585;DHT22;7379;51.506;11.876;2023-02-13T08:01:52;7.50;84.40
14585;DHT22;7379;51.506;11.876;2023-02-13T08:04:20;7.60;84.40
14585;DHT22;7379;51.506;11.876;2023-02-13T08:06:47;7.50;84.30
14585;DHT22;7379;51.506;11.876;2023-02-13T08:09:18;7.60;84.40
14585;DHT22;7379;51.506;11.876;2023-02-13T08:12:05;7.50;84.30
14585;DHT22;7379;51.506;11.876;2023-02-13T08:14:32;7.50;84.30
14585;DHT22;7379;51.506;11.876;2023-02-13T08:17:00;7.50;84.30
14585;DHT22;7379;51.506;11.876;2023-02-13T08:19:28;7.60;84.30
14585;DHT22;7379;51.506;11.876;2023-02-13T08:21:55;7.60;84.30
14585;DHT22;7379;51.506;11.876;2023-02-13T08:24:22;7.60;84.30
14585;DHT22;7379;51.506;11.876;2023-02-13T08:26:49;7.50;84.20
14585;DHT22;7379;51.506;11.876;2023-02-13T08:29:15;7.50;84.20
14585;DHT22;7379;51.506;11.876;2023-02-13T08:31:42;7.60;84.30
14585;DHT22;7379;51.506;11.876;2023-02-13T08:34:09;7.50;84.20
14585;DHT22;7379;51.506;11.876;2023-02-13T08:36:37;7.50;84.20
14585;DHT22;7379;51.506;11.876;2023-02-13T08:39:04;7.60;84.30
14585;DHT22;7379;51.506;11.876;2023-02-13T08:41:31;7.50;84.20
14585;DHT22;7379;51.506;11.876;2023-02-13T08:43:58;7.50;84.20
14585;DHT22;7379;51.506;11.876;2023-02-13T08:46:24;7.60;84.30
14585;DHT22;7379;51.506;11.876;2023-02-13T08:48:51;7.50;84.20
14585;DHT22;7379;51.506;11.876;2023-02-13T08:51:18;7.60;84.20
14585;DHT22;7379;51.506;11.876;2023-02-13T08:53:46;7.60;84.20
14585;DHT22;7379;51.506;11.876;2023-02-13T08:56:13;7.50;84.20
14585;DHT22;7379;51.506;11.876;2023-02-13T08:58:40;7.50;84.20
14585;DHT22;7379;51.506;11.876;2023-02-13T09:01:07;7.60;84.20
14585;DHT22;7379;51.506;11.876;2023-02-13T09:03:34;7.60;84.20
14585;DHT22;7379;51.506;11.876;2023-02-13T09:06:02;7.50;84.20
14585;DHT22;7379;51.506;11.876;2023-02-13T09:08:29;7.60;84.20
14585;DHT22;7379;51.506;11.876;2023-02-13T09:10:59;7.60;84.20
14585;DHT22;7379;51.506;11.876;2023-02-13T09:13:27;7.60;84.20
14585;DHT22;7379;51.506;11.876;2023-02-13T09:15:57;7.50;84.10
14585;DHT22;7379;51.506;11.876;2023-02-13T09:18:24;7.60;84.20
14585;DHT22;7379;51.506;11.876;2023-02-13T09:20:56;7.60;84.20
14585;DHT22;7379;51.506;11.876;2023-02-13T09:23:24;7.60;84.20
14585;DHT22;7379;51.506;11.876;2023-02-13T09:25:50;7.60;84.20
14585;DHT22;7379;51.506;11.876;2023-02-13T09:28:19;7.60;84.20
14585;DHT22;7379;51.506;11.876;2023-02-13T09:30:45;7.60;84.20
14585;DHT22;7379;51.506;11.876;2023-02-13T09:33:13;7.60;84.20
14585;DHT22;7379;51.506;11.876;2023-02-13T09:35:40;7.60;84.20
14585;DHT22;7379;51.506;11.876;2023-02-13T09:38:07;7.60;84.20
14585;DHT22;7379;51.506;11.876;2023-02-13T09:40:36;7.60;84.20
14585;DHT22;7379;51.506;11.876;2023-02-13T09:43:09;7.60;84.20
14585;DHT22;7379;51.506;11.876;2023-02-13T09:45:41;7.70;84.20
14585;DHT22;7379;51.506;11.876;2023-02-13T09:48:11;7.60;84.10
14585;DHT22;7379;51.506;11.876;2023-02-13T09:50:41;7.60;84.00
14585;DHT22;7379;51.506;11.876;2023-02-13T09:53:17;7.70;84.10
14585;DHT22;7379;51.506;11.876;2023-02-13T09:55:50;7.70;84.00
14585;DHT22;7379;51.506;11.876;2023-02-13T09:58:25;7.70;84.10
14585;DHT22;7379;51.506;11.876;2023-02-13T10:00:57;7.70;84.00
14585;DHT22;7379;51.506;11.876;2023-02-13T10:03:28;7.70;83.90
14585;DHT22;7379;51.506;11.876;2023-02-13T10:06:05;7.70;84.60
14585;DHT22;7379;51.506;11.876;2023-02-13T10:09:03;7.70;83.80
14585;DHT22;7379;51.506;11.876;2023-02-13T10:11:45;7.70;83.80
14585;DHT22;7379;51.506;11.876;2023-02-13T10:14:16;7.70;83.80
14585;DHT22;7379;51.506;11.876;2023-02-13T10:16:49;7.70;83.70
14585;DHT22;7379;51.506;11.876;2023-02-13T10:19:27;7.70;83.70
14585;DHT22;7379;51.506;11.876;2023-02-13T10:21:58;7.70;83.60
14585;DHT22;7379;51.506;11.876;2023-02-13T10:24:30;7.70;83.60
14585;DHT22;7379;51.506;11.876;2023-02-13T10:27:01;7.80;83.60
14585;DHT22;7379;51.506;11.876;2023-02-13T10:29:36;7.80;83.60
14585;DHT22;7379;51.506;11.876;2023-02-13T10:32:27;7.80;83.50
14585;DHT22;7379;51.506;11.876;2023-02-13T10:34:58;7.80;83.50
14585;DHT22;7379;51.506;11.876;2023-02-13T10:37:27;7.80;83.40
14585;DHT22;7379;51.506;11.876;2023-02-13T10:39:55;7.80;83.40
14585;DHT22;7379;51.506;11.876;2023-02-13T10:42:25;7.90;83.40
14585;DHT22;7379;51.506;11.876;2023-02-13T10:45:05;7.80;83.10
14585;DHT22;7379;51.506;11.876;2023-02-13T10:47:59;7.80;83.20
14585;DHT22;7379;51.506;11.876;2023-02-13T10:50:34;7.90;83.10
14585;DHT22;7379;51.506;11.876;2023-02-13T10:53:12;7.90;83.10
14585;DHT22;7379;51.506;11.876;2023-02-13T10:56:04;7.90;83.10
14585;DHT22;7379;51.506;11.876;2023-02-13T10:58:50;7.90;83.00
14585;DHT22;7379;51.506;11.876;2023-02-13T11:01:24;7.90;83.00
14585;DHT22;7379;51.506;11.876;2023-02-13T11:04:04;7.90;83.00
14585;DHT22;7379;51.506;11.876;2023-02-13T11:06:32;7.90;83.00
14585;DHT22;7379;51.506;11.876;2023-02-13T11:09:00;7.90;83.00
14585;DHT22;7379;51.506;11.876;2023-02-13T11:11:28;7.90;82.90
14585;DHT22;7379;51.506;11.876;2023-02-13T11:14:08;7.90;83.00
14585;DHT22;7379;51.506;11.876;2023-02-13T11:16:42;7.90;83.00
14585;DHT22;7379;51.506;11.876;2023-02-13T11:19:17;7.90;83.00
14585;DHT22;7379;51.506;11.876;2023-02-13T11:21:46;7.90;83.00
14585;DHT22;7379;51.506;11.876;2023-02-13T11:24:21;7.90;82.90
14585;DHT22;7379;51.506;11.876;2023-02-13T11:26:53;7.90;83.00
14585;DHT22;7379;51.506;11.876;2023-02-13T11:29:25;7.90;83.00
14585;DHT22;7379;51.506;11.876;2023-02-13T11:32:06;7.90;82.90
14585;DHT22;7379;51.506;11.876;2023-02-13T11:34:38;7.90;83.00
14585;DHT22;7379;51.506;11.876;2023-02-13T11:37:22;7.90;83.00
14585;DHT22;7379;51.506;11.876;2023-02-13T11:39:51;8.00;83.10
14585;DHT22;7379;51.506;11.876;2023-02-13T11:42:23;7.90;82.90
14585;DHT22;7379;51.506;11.876;2023-02-13T11:44:52;8.00;83.00
14585;DHT22;7379;51.506;11.876;2023-02-13T11:47:32;7.90;82.90
14585;DHT22;7379;51.506;11.876;2023-02-13T11:50:01;8.00;82.90
14585;DHT22;7379;51.506;11.876;2023-02-13T11:52:31;7.90;82.90
14585;DHT22;7379;51.506;11.876;2023-02-13T11:55:00;7.90;82.80
14585;DHT22;7379;51.506;11.876;2023-02-13T11:57:30;7.90;82.90
14585;DHT22;7379;51.506;11.876;2023-02-13T11:59:58;8.00;82.90
14585;DHT22;7379;51.506;11.876;2023-02-13T12:02:27;8.00;82.70
14585;DHT22;7379;51.506;11.876;2023-02-13T12:05:16;8.00;82.60
14585;DHT22;7379;51.506;11.876;2023-02-13T12:07:44;8.00;82.40
14585;DHT22;7379;51.506;11.876;2023-02-13T12:10:19;8.10;82.40
14585;DHT22;7379;51.506;11.876;2023-02-13T12:12:52;8.10;82.30
14585;DHT22;7379;51.506;11.876;2023-02-13T12:15:21;8.10;82.30
14585;DHT22;7379;51.506;11.876;2023-02-13T12:18:02;8.10;82.40
14585;DHT22;7379;51.506;11.876;2023-02-13T12:20:38;8.10;82.40
14585;DHT22;7379;51.506;11.876;2023-02-13T12:23:11;8.10;82.50
14585;DHT22;7379;51.506;11.876;2023-02-13T12:25:55;8.10;82.60
14585;DHT22;7379;51.506;11.876;2023-02-13T12:28:30;8.10;82.60
14585;DHT22;7379;51.506;11.876;2023-02-13T12:34:26;8.10;82.50
14585;DHT22;7379;51.506;11.876;2023-02-13T12:37:09;8.10;82.50
14585;DHT22;7379;51.506;11.876;2023-02-13T12:39:42;8.10;82.60
14585;DHT22;7379;51.506;11.876;2023-02-13T12:42:33;8.10;82.40
14585;DHT22;7379;51.506;11.876;2023-02-13T12:45:16;8.10;82.40
14585;DHT22;7379;51.506;11.876;2023-02-13T12:48:03;8.10;82.50
14585;DHT22;7379;51.506;11.876;2023-02-13T12:50:50;8.10;82.50
14585;DHT22;7379;51.506;11.876;2023-02-13T12:53:45;8.10;82.50
14585;DHT22;7379;51.506;11.876;2023-02-13T12:56:32;8.10;82.50
14585;DHT22;7379;51.506;11.876;2023-02-13T12:59:04;8.10;82.50
14585;DHT22;7379;51.506;11.876;2023-02-13T13:01:58;8.10;82.50
14585;DHT22;7379;51.506;11.876;2023-02-13T13:04:39;8.10;82.50
14585;DHT22;7379;51.506;11.876;2023-02-13T13:07:22;8.10;82.50
14585;DHT22;7379;51.506;11.876;2023-02-13T13:10:18;8.10;82.50
14585;DHT22;7379;51.506;11.876;2023-02-13T13:12:52;8.10;82.50
14585;DHT22;7379;51.506;11.876;2023-02-13T13:15:31;8.10;82.50
14585;DHT22;7379;51.506;11.876;2023-02-13T13:18:11;8.20;82.60
14585;DHT22;7379;51.506;11.876;2023-02-13T13:20:56;8.20;82.30
14585;DHT22;7379;51.506;11.876;2023-02-13T13:23:30;8.20;82.30
14585;DHT22;7379;51.506;11.876;2023-02-13T13:26:06;8.20;82.40
14585;DHT22;7379;51.506;11.876;2023-02-13T13:28:38;8.20;82.40
14585;DHT22;7379;51.506;11.876;2023-02-13T13:31:06;8.20;83.10
14585;DHT22;7379;51.506;11.876;2023-02-13T13:33:34;8.20;83.00
14585;DHT22;7379;51.506;11.876;2023-02-13T13:36:08;8.20;82.20
14585;DHT22;7379;51.506;11.876;2023-02-13T13:38:43;8.20;82.20
14585;DHT22;7379;51.506;11.876;2023-02-13T13:41:22;8.20;82.20
14585;DHT22;7379;51.506;11.876;2023-02-13T13:44:03;8.20;82.20
14585;DHT22;7379;51.506;11.876;2023-02-13T13:46:37;8.20;82.20
14585;DHT22;7379;51.506;11.876;2023-02-13T13:49:28;8.20;82.20
14585;DHT22;7379;51.506;11.876;2023-02-13T13:52:09;8.20;82.10
14585;DHT22;7379;51.506;11.876;2023-02-13T13:54:37;8.30;82.10
14585;DHT22;7379;51.506;11.876;2023-02-13T13:57:09;8.20;81.90
14585;DHT22;7379;51.506;11.876;2023-02-13T14:00:00;8.30;81.80
14585;DHT22;7379;51.506;11.876;2023-02-13T14:02:44;8.30;81.90
14585;DHT22;7379;51.506;11.876;2023-02-13T14:05:21;8.30;82.00
14585;DHT22;7379;51.506;11.876;2023-02-13T14:07:50;8.30;82.00
14585;DHT22;7379;51.506;11.876;2023-02-13T14:13:33;8.30;82.10
14585;DHT22;7379;51.506;11.876;2023-02-13T14:16:02;8.30;82.10
14585;DHT22;7379;51.506;11.876;2023-02-13T14:18:29;8.30;82.20
14585;DHT22;7379;51.506;11.876;2023-02-13T14:20:59;8.30;82.10
14585;DHT22;7379;51.506;11.876;2023-02-13T14:23:45;8.30;82.20
14585;DHT22;7379;51.506;11.876;2023-02-13T14:26:37;8.30;82.10
14585;DHT22;7379;51.506;11.876;2023-02-13T14:29:31;8.30;82.10
14585;DHT22;7379;51.506;11.876;2023-02-13T14:34:39;8.30;82.20
14585;DHT22;7379;51.506;11.876;2023-02-13T14:37:17;8.30;82.10
14585;DHT22;7379;51.506;11.876;2023-02-13T14:42:51;8.30;82.10
14585;DHT22;7379;51.506;11.876;2023-02-13T14:45:23;8.30;82.00
14585;DHT22;7379;51.506;11.876;2023-02-13T14:47:54;8.30;82.00
14585;DHT22;7379;51.506;11.876;2023-02-13T14:50:25;8.30;82.10
14585;DHT22;7379;51.506;11.876;2023-02-13T14:52:54;8.30;82.10
14585;DHT22;7379;51.506;11.876;2023-02-13T14:55:30;8.30;82.00
14585;DHT22;7379;51.506;11.876;2023-02-13T14:58:03;8.30;82.00
14585;DHT22;7379;51.506;11.876;2023-02-13T15:00:40;8.30;82.30
14585;DHT22;7379;51.506;11.876;2023-02-13T15:03:24;8.30;82.00
14585;DHT22;7379;51.506;11.876;2023-02-13T15:05:55;8.30;82.00
14585;DHT22;7379;51.506;11.876;2023-02-13T15:08:25;8.30;82.00
14585;DHT22;7379;51.506;11.876;2023-02-13T15:10:54;8.30;81.90
14585;DHT22;7379;51.506;11.876;2023-02-13T15:13:23;8.30;81.90
14585;DHT22;7379;51.506;11.876;2023-02-13T15:15:53;8.30;81.90
14585;DHT22;7379;51.506;11.876;2023-02-13T15:18:23;8.30;81.90
14585;DHT22;7379;51.506;11.876;2023-02-13T15:20:53;8.30;82.00
14585;DHT22;7379;51.506;11.876;2023-02-13T15:23:24;8.30;82.00
14585;DHT22;7379;51.506;11.876;2023-02-13T15:25:59;8.30;81.90
14585;DHT22;7379;51.506;11.876;2023-02-13T15:28:27;8.30;82.00
14585;DHT22;7379;51.506;11.876;2023-02-13T15:30:57;8.30;81.90
14585;DHT22;7379;51.506;11.876;2023-02-13T15:33:25;8.30;82.00
14585;DHT22;7379;51.506;11.876;2023-02-13T15:35:57;8.30;81.90
14585;DHT22;7379;51.506;11.876;2023-02-13T15:38:29;8.30;82.00
14585;DHT22;7379;51.506;11.876;2023-02-13T15:41:00;8.30;81.90
14585;DHT22;7379;51.506;11.876;2023-02-13T15:43:33;8.30;81.90
14585;DHT22;7379;51.506;11.876;2023-02-13T15:46:03;8.30;81.90
14585;DHT22;7379;51.506;11.876;2023-02-13T15:48:32;8.30;81.90
14585;DHT22;7379;51.506;11.876;2023-02-13T15:51:00;8.30;81.90
14585;DHT22;7379;51.506;11.876;2023-02-13T15:53:27;8.30;82.00
14585;DHT22;7379;51.506;11.876;2023-02-13T15:55:57;8.30;81.90
14585;DHT22;7379;51.506;11.876;2023-02-13T15:58:28;8.30;81.90
14585;DHT22;7379;51.506;11.876;2023-02-13T16:00:56;8.30;81.90
14585;DHT22;7379;51.506;11.876;2023-02-13T16:03:26;8.30;81.90
14585;DHT22;7379;51.506;11.876;2023-02-13T16:05:54;8.30;81.90
14585;DHT22;7379;51.506;11.876;2023-02-13T16:08:27;8.30;81.90
14585;DHT22;7379;51.506;11.876;2023-02-13T16:11:29;8.30;81.90
14585;DHT22;7379;51.506;11.876;2023-02-13T16:14:04;8.30;81.90
14585;DHT22;7379;51.506;11.876;2023-02-13T16:16:34;8.20;81.80
14585;DHT22;7379;51.506;11.876;2023-02-13T16:19:03;8.20;81.80
14585;DHT22;7379;51.506;11.876;2023-02-13T16:21:30;8.30;81.90
14585;DHT22;7379;51.506;11.876;2023-02-13T16:24:01;8.20;81.80
14585;DHT22;7379;51.506;11.876;2023-02-13T16:26:29;8.20;81.80
14585;DHT22;7379;51.506;11.876;2023-02-13T16:28:56;8.20;81.80
14585;DHT22;7379;51.506;11.876;2023-02-13T16:31:23;8.20;81.80
14585;DHT22;7379;51.506;11.876;2023-02-13T16:33:50;8.20;81.80
14585;DHT22;7379;51.506;11.876;2023-02-13T16:36:26;8.20;81.80